1899 NOT_NAMED (1899032S12054)


IBTrACS version v04r00. Visit IBTrACS website for data access.
Please direct all questions to the IBTrACS Q and A forum

Storm track - Intensity - Wind Radii - Intensity Data - Source Data - All data

Summary Information

Storm ID 1899032S12054
Start Feb 1 06Z
Landfall Feb 3 03Z, Feb 5 06Z
End Feb 11 06Z
ATCF IDs
Track status Best track data.

Storm track plot

Map of storm track

Intensity plots

No Intensity information for this storm


Radial wind information

No radial wind information for this storm


Position and Intensity Table

BASIN ISO_TIME_________ NATURE LAT LON
degrees north degrees east
SI 1899-02-01 06:00:00 NR -12.10 54.30
SI 09:00:00 NR -12.17 54.01
SI 12:00:00 NR -12.26 53.77
SI 15:00:00 NR -12.34 53.44
SI 18:00:00 NR -12.44 53.08
SI 21:00:00 NR -12.53 52.72
SI 1899-02-02 00:00:00 NR -12.62 52.39
SI 03:00:00 NR -12.71 52.07
SI 06:00:00 NR -12.80 51.78
SI 09:00:00 NR -12.89 51.49
SI 12:00:00 NR -12.99 51.22
SI 15:00:00 NR -13.09 50.94
SI 18:00:00 NR -13.21 50.66
SI 21:00:00 NR -13.32 50.39
SI 1899-02-03 00:00:00 NR -13.44 50.12
SI 03:00:00 NR -13.56 49.83
SI 06:00:00 NR -13.68 49.54
SI 09:00:00 NR -13.80 49.26
SI 12:00:00 NR -13.92 48.98
SI 15:00:00 NR -14.03 48.73
SI 18:00:00 NR -14.14 48.48
SI 21:00:00 NR -14.25 48.25
SI 1899-02-04 00:00:00 NR -14.37 48.03
SI 03:00:00 NR -14.49 47.81
SI 06:00:00 NR -14.62 47.59
SI 09:00:00 NR -14.74 47.39
SI 12:00:00 NR -14.87 47.19
SI 15:00:00 NR -15.01 47.00
SI 18:00:00 NR -15.14 46.82
SI 21:00:00 NR -15.29 46.64
SI 1899-02-05 00:00:00 NR -15.44 46.47
SI 03:00:00 NR -15.60 46.28
SI 06:00:00 NR -15.76 46.09
SI 09:00:00 NR -15.94 45.89
SI 12:00:00 NR -16.13 45.70
SI 15:00:00 NR -16.32 45.52
SI 18:00:00 NR -16.53 45.37
SI 21:00:00 NR -16.75 45.25
SI 1899-02-06 00:00:00 NR -16.99 45.17
SI 03:00:00 NR -17.26 45.13
SI 06:00:00 NR -17.54 45.14
SI 09:00:00 NR -17.82 45.19
SI 12:00:00 NR -18.08 45.28
SI 15:00:00 NR -18.29 45.37
SI 18:00:00 NR -18.48 45.49
SI 21:00:00 NR -18.66 45.62
SI 1899-02-07 00:00:00 NR -18.81 45.76
SI 03:00:00 NR -18.97 45.88
SI 06:00:00 NR -19.11 46.00
SI 09:00:00 NR -19.23 46.10
SI 12:00:00 NR -19.34 46.21
SI 15:00:00 NR -19.45 46.32
SI 18:00:00 NR -19.56 46.44
SI 21:00:00 NR -19.66 46.56
SI 1899-02-08 00:00:00 NR -19.76 46.68
SI 03:00:00 NR -19.86 46.80
SI 06:00:00 NR -19.95 46.93
SI 09:00:00 NR -20.06 47.05
SI 12:00:00 NR -20.15 47.17
SI 15:00:00 NR -20.24 47.29
SI 18:00:00 NR -20.32 47.41
SI 21:00:00 NR -20.41 47.54
SI 1899-02-09 00:00:00 NR -20.50 47.67
SI 03:00:00 NR -20.61 47.80
SI 06:00:00 NR -20.72 47.94
SI 09:00:00 NR -20.84 48.09
SI 12:00:00 NR -20.95 48.25
SI 15:00:00 NR -21.06 48.41
SI 18:00:00 NR -21.14 48.55
SI 21:00:00 NR -21.21 48.68
SI 1899-02-10 00:00:00 NR -21.27 48.79
SI 03:00:00 NR -21.30 48.86
SI 06:00:00 NR -21.40 49.00
SI 09:00:00 NR -21.49 49.13
SI 12:00:00 NR -21.58 49.26
SI 15:00:00 NR -21.67 49.37
SI 18:00:00 NR -21.76 49.48
SI 21:00:00 NR -21.85 49.59
SI 1899-02-11 00:00:00 NR -21.93 49.70
SI 03:00:00 NR -22.02 49.80
SI 06:00:00 NR -22.10 49.90

Source Information

Agency Information
USA
TOKYO
CMA
HKO
NEWDELHI
REUNION WMO-Best-Tracks.txt:Line=1857:xxxx899270
BOM
NADI
WELLINGTON
DS824
TD9636 cons_worldwide_trop_cyclone_18710101-19891231-005:Line=2491
TD9635
NEUMANN
MLC

All available IBTrACS Data

SEASON BASIN SUBBASIN ISO_TIME_________ NATURE LAT LON WMO AGENCY DIST2LAND LANDFALL IFLAG USA SSHS REUNION LAT REUNION LON REUNION TYPE REUNION TNUM TD9636 LAT TD9636 LON TD9636 STAGE STORM SPEED STORM DIR
Year degrees north degrees east km km 1 degrees north degrees east 1 degrees north degrees east kts degrees
1899 SI MM 1899-02-01 06:00:00 NR -12.10 54.30 reunion 488 454 _____O________ -1 -12.10 54.30 99 9.90 6 256
1899 SI MM 09:00:00 NR -12.17 54.01 454 430 _____P________ -1 -12.17 54.01 99 5 253
1899 SI MM 12:00:00 NR -12.26 53.77 430 398 _____P____O___ -1 -12.24 53.72 99 -12.30 53.90 7 6 253
1899 SI MM 15:00:00 NR -12.34 53.44 387 353 _____P____P___ -1 -12.31 53.43 99 -12.40 53.45 7 7 255
1899 SI MM 18:00:00 NR -12.44 53.08 353 308 _____P____P___ -1 -12.39 53.15 99 -12.50 53.00 7 7 255
1899 SI MM 21:00:00 NR -12.53 52.72 308 274 _____P____P___ -1 -12.46 52.86 99 -12.60 52.58 7 7 255
1899 SI MM 1899-02-02 00:00:00 NR -12.62 52.39 274 240 _____P____O___ -1 -12.54 52.57 99 -12.70 52.20 7 7 255
1899 SI MM 03:00:00 NR -12.71 52.07 240 206 _____P____P___ -1 -12.62 52.28 99 -12.80 51.86 7 6 253
1899 SI MM 06:00:00 NR -12.80 51.78 reunion 206 171 _____O____P___ -1 -12.70 52.00 99 9.90 -12.89 51.55 7 6 252
1899 SI MM 09:00:00 NR -12.89 51.49 171 137 _____P____P___ -1 -12.79 51.72 99 -12.99 51.27 7 6 251
1899 SI MM 12:00:00 NR -12.99 51.22 137 113 _____P____O___ -1 -12.88 51.43 99 -13.10 51.00 7 6 249
1899 SI MM 15:00:00 NR -13.09 50.94 103 79 _____P____P___ -1 -12.97 51.15 99 -13.22 50.72 7 6 248
1899 SI MM 18:00:00 NR -13.21 50.66 79 44 _____P____P___ -1 -13.07 50.88 99 -13.34 50.45 7 6 247
1899 SI MM 21:00:00 NR -13.32 50.39 44 10 _____P____P___ -1 -13.17 50.60 99 -13.47 50.18 7 6 246
1899 SI MM 1899-02-03 00:00:00 NR -13.44 50.12 10 0 _____P____O___ -1 -13.28 50.33 99 -13.60 49.90 7 6 247
1899 SI MM 03:00:00 NR -13.56 49.83 0 0 _____P____P___ -1 -13.39 50.06 99 -13.73 49.60 7 6 247
1899 SI MM 06:00:00 NR -13.68 49.54 reunion 0 0 _____O____P___ -1 -13.50 49.80 99 9.90 -13.86 49.29 7 6 247
1899 SI MM 09:00:00 NR -13.80 49.26 0 0 _____P____P___ -1 -13.61 49.53 99 -13.98 48.98 7 6 246
1899 SI MM 12:00:00 NR -13.92 48.98 0 0 _____P____O___ -1 -13.73 49.27 99 -14.10 48.70 7 6 246
1899 SI MM 15:00:00 NR -14.03 48.73 0 0 _____P____P___ -1 -13.85 49.00 99 -14.20 48.45 7 5 245
1899 SI MM 18:00:00 NR -14.14 48.48 0 0 _____P____P___ -1 -13.98 48.75 99 -14.30 48.22 7 5 244
1899 SI MM 21:00:00 NR -14.25 48.25 0 0 _____P____P___ -1 -14.10 48.50 99 -14.40 48.01 7 5 243
1899 SI MM 1899-02-04 00:00:00 NR -14.37 48.03 0 0 _____P____O___ -1 -14.23 48.26 99 -14.50 47.80 7 5 241
1899 SI MM 03:00:00 NR -14.49 47.81 0 0 _____P____P___ -1 -14.37 48.02 99 -14.61 47.59 7 5 239
1899 SI MM 06:00:00 NR -14.62 47.59 reunion 21 11 _____O____P___ -1 -14.50 47.80 99 9.90 -14.73 47.38 7 5 238
1899 SI MM 09:00:00 NR -14.74 47.39 11 0 _____P____P___ -1 -14.62 47.58 99 -14.86 47.19 7 5 237
1899 SI MM 12:00:00 NR -14.87 47.19 10 10 _____P____O___ -1 -14.75 47.38 99 -15.00 47.00 7 5 235
1899 SI MM 15:00:00 NR -15.01 47.00 22 15 _____P____P___ -1 -14.87 47.18 99 -15.14 46.82 7 4 233
1899 SI MM 18:00:00 NR -15.14 46.82 22 10 _____P____P___ -1 -15.00 46.99 99 -15.28 46.65 7 4 230
1899 SI MM 21:00:00 NR -15.29 46.64 11 0 _____P____P___ -1 -15.14 46.81 99 -15.44 46.48 7 5 229
1899 SI MM 1899-02-05 00:00:00 NR -15.44 46.47 10 10 _____P____O___ -1 -15.28 46.63 99 -15.60 46.30 7 5 229
1899 SI MM 03:00:00 NR -15.60 46.28 10 0 _____P____P___ -1 -15.44 46.46 99 -15.76 46.09 7 5 228
1899 SI MM 06:00:00 NR -15.76 46.09 reunion 0 0 _____O____P___ -1 -15.60 46.30 99 9.90 -15.93 45.88 7 5 228
1899 SI MM 09:00:00 NR -15.94 45.89 0 0 _____P____P___ -1 -15.77 46.10 99 -16.11 45.68 7 5 226
1899 SI MM 12:00:00 NR -16.13 45.70 0 0 _____P____O___ -1 -15.96 45.90 99 -16.30 45.50 7 5 222
1899 SI MM 15:00:00 NR -16.32 45.52 0 0 _____P____P___ -1 -16.15 45.71 99 -16.49 45.34 7 5 218
1899 SI MM 18:00:00 NR -16.53 45.37 0 0 _____P____P___ -1 -16.36 45.53 99 -16.70 45.22 7 5 211
1899 SI MM 21:00:00 NR -16.75 45.25 0 0 _____P____P___ -1 -16.56 45.37 99 -16.94 45.13 7 5 203
1899 SI MM 1899-02-06 00:00:00 NR -16.99 45.17 0 0 _____P____O___ -1 -16.77 45.25 99 -17.20 45.10 7 5 192
1899 SI MM 03:00:00 NR -17.26 45.13 0 0 _____P____P___ -1 -16.99 45.15 99 -17.52 45.12 7 6 184
1899 SI MM 06:00:00 NR -17.54 45.14 reunion 0 0 _____O____P___ -1 -17.20 45.10 99 9.90 -17.87 45.18 7 6 174
1899 SI MM 09:00:00 NR -17.82 45.19 0 0 _____P____P___ -1 -17.42 45.10 99 -18.21 45.28 7 6 167
1899 SI MM 12:00:00 NR -18.08 45.28 0 0 _____P____O___ -1 -17.65 45.15 99 -18.50 45.40 7 5 160
1899 SI MM 15:00:00 NR -18.29 45.37 0 0 _____P____P___ -1 -17.88 45.23 99 -18.71 45.51 7 5 154
1899 SI MM 18:00:00 NR -18.48 45.49 0 0 _____P____P___ -1 -18.10 45.34 99 -18.87 45.64 7 4 147
1899 SI MM 21:00:00 NR -18.66 45.62 0 0 _____P____P___ -1 -18.32 45.47 99 -18.99 45.77 7 4 143
1899 SI MM 1899-02-07 00:00:00 NR -18.81 45.76 0 0 _____P____O___ -1 -18.53 45.61 99 -19.10 45.90 7 4 142
1899 SI MM 03:00:00 NR -18.97 45.88 0 0 _____P____P___ -1 -18.72 45.76 99 -19.21 46.00 7 4 142
1899 SI MM 06:00:00 NR -19.11 46.00 reunion 0 0 _____O____P___ -1 -18.90 45.90 99 9.90 -19.31 46.10 7 3 141
1899 SI MM 09:00:00 NR -19.23 46.10 0 0 _____P____P___ -1 -19.05 46.01 99 -19.41 46.20 7 3 140
1899 SI MM 12:00:00 NR -19.34 46.21 0 0 _____P____O___ -1 -19.19 46.11 99 -19.50 46.30 7 3 137
1899 SI MM 15:00:00 NR -19.45 46.32 0 0 _____P____P___ -1 -19.31 46.22 99 -19.60 46.42 7 3 134
1899 SI MM 18:00:00 NR -19.56 46.44 0 0 _____P____P___ -1 -19.42 46.34 99 -19.70 46.54 7 3 133
1899 SI MM 21:00:00 NR -19.66 46.56 0 0 _____P____P___ -1 -19.52 46.45 99 -19.80 46.67 7 3 131
1899 SI MM 1899-02-08 00:00:00 NR -19.76 46.68 0 0 _____P____O___ -1 -19.61 46.56 99 -19.90 46.80 7 3 131
1899 SI MM 03:00:00 NR -19.86 46.80 0 0 _____P____P___ -1 -19.71 46.68 99 -20.00 46.93 7 3 131
1899 SI MM 06:00:00 NR -19.95 46.93 reunion 0 0 _____O____P___ -1 -19.80 46.80 99 9.90 -20.11 47.05 7 3 131
1899 SI MM 09:00:00 NR -20.06 47.05 0 0 _____P____P___ -1 -19.90 46.92 99 -20.21 47.18 7 3 132
1899 SI MM 12:00:00 NR -20.15 47.17 0 0 _____P____O___ -1 -20.01 47.03 99 -20.30 47.30 7 3 129
1899 SI MM 15:00:00 NR -20.24 47.29 0 0 _____P____P___ -1 -20.11 47.16 99 -20.37 47.42 7 3 127
1899 SI MM 18:00:00 NR -20.32 47.41 0 0 _____P____P___ -1 -20.21 47.28 99 -20.44 47.54 7 3 126
1899 SI MM 21:00:00 NR -20.41 47.54 0 0 _____P____P___ -1 -20.31 47.40 99 -20.51 47.67 7 3 126
1899 SI MM 1899-02-09 00:00:00 NR -20.50 47.67 0 0 _____P____O___ -1 -20.40 47.53 99 -20.60 47.80 7 3 128
1899 SI MM 03:00:00 NR -20.61 47.80 0 0 _____P____P___ -1 -20.50 47.66 99 -20.71 47.94 7 3 130
1899 SI MM 06:00:00 NR -20.72 47.94 reunion 0 0 _____O____P___ -1 -20.60 47.80 99 9.90 -20.84 48.08 7 4 130
1899 SI MM 09:00:00 NR -20.84 48.09 0 0 _____P____P___ -1 -20.70 47.95 99 -20.97 48.24 7 4 129
1899 SI MM 12:00:00 NR -20.95 48.25 0 0 _____P____O___ -1 -20.80 48.10 99 -21.10 48.40 7 4 127
1899 SI MM 15:00:00 NR -21.06 48.41 10 10 _____P____P___ -1 -20.91 48.25 99 -21.21 48.57 7 3 124
1899 SI MM 18:00:00 NR -21.14 48.55 23 23 _____P____P___ -1 -21.01 48.41 99 -21.32 48.74 7 3 120
1899 SI MM 21:00:00 NR -21.21 48.68 38 38 _____P____P___ -1 -21.11 48.56 99 -21.41 48.92 7 3 120
1899 SI MM 1899-02-10 00:00:00 NR -21.27 48.79 51 51 _____P____O___ -1 -21.21 48.71 99 -21.50 49.10 7 2 120
1899 SI MM 03:00:00 NR -21.30 48.86 61 61 _____P________ -1 -21.30 48.86 99 7 2 125
1899 SI MM 06:00:00 NR -21.40 49.00 reunion 72 72 _____O________ -1 -21.40 49.00 99 9.90 7 3 126
1899 SI MM 09:00:00 NR -21.49 49.13 83 83 _____P________ -1 -21.49 49.13 99 7 3 128
1899 SI MM 12:00:00 NR -21.58 49.26 105 105 _____P________ -1 -21.58 49.26 99 3 129
1899 SI MM 15:00:00 NR -21.67 49.37 118 118 _____P________ -1 -21.67 49.37 99 3 130
1899 SI MM 18:00:00 NR -21.76 49.48 131 131 _____P________ -1 -21.76 49.48 99 3 130
1899 SI MM 21:00:00 NR -21.85 49.59 141 141 _____P________ -1 -21.85 49.59 99 3 131
1899 SI MM 1899-02-11 00:00:00 NR -21.93 49.70 155 155 _____P________ -1 -21.93 49.70 99 3 132
1899 SI MM 03:00:00 NR -22.02 49.80 166 166 _____P________ -1 -22.02 49.80 99 3 132
1899 SI MM 06:00:00 NR -22.10 49.90 reunion 178 _____O________ -1 -22.10 49.90 99 9.90 3 130